sensor_id;sensor_type;location;lat;lon;timestamp;P1;durP1;ratioP1;P2;durP2;ratioP2
25449;SDS011;13371;52.080;5.624;2022-07-21T00:00:20;11.93;;;7.82;;
25449;SDS011;13371;52.080;5.624;2022-07-21T00:02:48;12.27;;;8.02;;
25449;SDS011;13371;52.080;5.624;2022-07-21T00:05:14;9.55;;;7.60;;
25449;SDS011;13371;52.080;5.624;2022-07-21T00:07:40;11.05;;;8.15;;
25449;SDS011;13371;52.080;5.624;2022-07-21T00:10:06;10.40;;;7.05;;
25449;SDS011;13371;52.080;5.624;2022-07-21T00:12:32;18.77;;;8.00;;
25449;SDS011;13371;52.080;5.624;2022-07-21T00:14:58;11.05;;;8.20;;
25449;SDS011;13371;52.080;5.624;2022-07-21T00:17:24;12.45;;;8.50;;
25449;SDS011;13371;52.080;5.624;2022-07-21T00:19:49;12.90;;;9.25;;
25449;SDS011;13371;52.080;5.624;2022-07-21T00:22:15;9.73;;;8.55;;
25449;SDS011;13371;52.080;5.624;2022-07-21T00:24:40;12.20;;;8.20;;
25449;SDS011;13371;52.080;5.624;2022-07-21T00:27:06;10.43;;;8.05;;
25449;SDS011;13371;52.080;5.624;2022-07-21T00:29:31;11.15;;;7.93;;
25449;SDS011;13371;52.080;5.624;2022-07-21T00:31:57;9.02;;;7.07;;
25449;SDS011;13371;52.080;5.624;2022-07-21T00:34:25;10.95;;;7.07;;
25449;SDS011;13371;52.080;5.624;2022-07-21T00:36:50;10.23;;;7.57;;
25449;SDS011;13371;52.080;5.624;2022-07-21T00:39:16;9.90;;;6.88;;
25449;SDS011;13371;52.080;5.624;2022-07-21T00:41:41;9.43;;;7.10;;
25449;SDS011;13371;52.080;5.624;2022-07-21T00:44:18;10.88;;;6.95;;
25449;SDS011;13371;52.080;5.624;2022-07-21T00:46:50;9.07;;;6.68;;
25449;SDS011;13371;52.080;5.624;2022-07-21T00:49:16;8.88;;;7.28;;
25449;SDS011;13371;52.080;5.624;2022-07-21T00:51:42;9.63;;;7.43;;
25449;SDS011;13371;52.080;5.624;2022-07-21T00:54:08;14.15;;;6.43;;
25449;SDS011;13371;52.080;5.624;2022-07-21T00:56:34;11.18;;;7.45;;
25449;SDS011;13371;52.080;5.624;2022-07-21T00:59:00;8.23;;;6.07;;
25449;SDS011;13371;52.080;5.624;2022-07-21T01:01:26;8.82;;;6.63;;
25449;SDS011;13371;52.080;5.624;2022-07-21T01:03:52;10.10;;;7.63;;
25449;SDS011;13371;52.080;5.624;2022-07-21T01:06:17;10.98;;;7.75;;
25449;SDS011;13371;52.080;5.624;2022-07-21T01:08:43;8.52;;;6.90;;
25449;SDS011;13371;52.080;5.624;2022-07-21T01:11:08;10.85;;;7.60;;
25449;SDS011;13371;52.080;5.624;2022-07-21T01:13:34;10.18;;;6.68;;
25449;SDS011;13371;52.080;5.624;2022-07-21T01:16:06;10.68;;;7.13;;
25449;SDS011;13371;52.080;5.624;2022-07-21T01:18:32;9.55;;;7.13;;
25449;SDS011;13371;52.080;5.624;2022-07-21T01:20:58;8.02;;;6.80;;
25449;SDS011;13371;52.080;5.624;2022-07-21T01:25:57;9.85;;;7.65;;
25449;SDS011;13371;52.080;5.624;2022-07-21T01:28:23;9.98;;;7.65;;
25449;SDS011;13371;52.080;5.624;2022-07-21T01:30:48;9.63;;;7.15;;
25449;SDS011;13371;52.080;5.624;2022-07-21T01:33:15;9.75;;;7.10;;
25449;SDS011;13371;52.080;5.624;2022-07-21T01:35:41;11.63;;;8.32;;
25449;SDS011;13371;52.080;5.624;2022-07-21T01:38:07;9.68;;;7.68;;
25449;SDS011;13371;52.080;5.624;2022-07-21T01:40:57;10.85;;;8.15;;
25449;SDS011;13371;52.080;5.624;2022-07-21T01:43:41;11.73;;;8.48;;
25449;SDS011;13371;52.080;5.624;2022-07-21T01:46:09;13.15;;;8.88;;
25449;SDS011;13371;52.080;5.624;2022-07-21T01:48:40;12.32;;;9.02;;
25449;SDS011;13371;52.080;5.624;2022-07-21T01:51:09;11.10;;;9.10;;
25449;SDS011;13371;52.080;5.624;2022-07-21T01:53:35;11.18;;;8.23;;
25449;SDS011;13371;52.080;5.624;2022-07-21T01:56:01;10.73;;;8.32;;
25449;SDS011;13371;52.080;5.624;2022-07-21T01:58:27;12.63;;;9.02;;
25449;SDS011;13371;52.080;5.624;2022-07-21T02:00:54;14.75;;;9.55;;
25449;SDS011;13371;52.080;5.624;2022-07-21T02:03:19;14.50;;;9.77;;
25449;SDS011;13371;52.080;5.624;2022-07-21T02:05:45;15.13;;;10.13;;
25449;SDS011;13371;52.080;5.624;2022-07-21T02:08:11;16.88;;;10.93;;
25449;SDS011;13371;52.080;5.624;2022-07-21T02:10:37;13.68;;;9.95;;
25449;SDS011;13371;52.080;5.624;2022-07-21T02:13:03;12.45;;;10.18;;
25449;SDS011;13371;52.080;5.624;2022-07-21T02:15:28;14.75;;;11.35;;
25449;SDS011;13371;52.080;5.624;2022-07-21T02:17:54;15.02;;;11.10;;
25449;SDS011;13371;52.080;5.624;2022-07-21T02:20:20;15.55;;;11.02;;
25449;SDS011;13371;52.080;5.624;2022-07-21T02:22:46;15.20;;;11.38;;
25449;SDS011;13371;52.080;5.624;2022-07-21T02:25:13;16.33;;;11.20;;
25449;SDS011;13371;52.080;5.624;2022-07-21T02:27:38;14.32;;;10.55;;
25449;SDS011;13371;52.080;5.624;2022-07-21T02:30:04;15.02;;;10.90;;
25449;SDS011;13371;52.080;5.624;2022-07-21T02:32:30;17.48;;;11.35;;
25449;SDS011;13371;52.080;5.624;2022-07-21T02:34:56;13.13;;;10.15;;
25449;SDS011;13371;52.080;5.624;2022-07-21T02:37:24;14.40;;;10.90;;
25449;SDS011;13371;52.080;5.624;2022-07-21T02:39:50;16.80;;;11.00;;
25449;SDS011;13371;52.080;5.624;2022-07-21T02:42:15;15.32;;;11.70;;
25449;SDS011;13371;52.080;5.624;2022-07-21T02:44:41;14.40;;;11.30;;
25449;SDS011;13371;52.080;5.624;2022-07-21T02:47:07;14.65;;;11.48;;
25449;SDS011;13371;52.080;5.624;2022-07-21T02:49:32;14.80;;;11.45;;
25449;SDS011;13371;52.080;5.624;2022-07-21T02:51:58;18.23;;;12.27;;
25449;SDS011;13371;52.080;5.624;2022-07-21T02:54:23;15.63;;;12.25;;
25449;SDS011;13371;52.080;5.624;2022-07-21T02:56:49;15.50;;;12.43;;
25449;SDS011;13371;52.080;5.624;2022-07-21T02:59:14;15.82;;;11.93;;
25449;SDS011;13371;52.080;5.624;2022-07-21T03:01:40;16.73;;;12.27;;
25449;SDS011;13371;52.080;5.624;2022-07-21T03:04:06;17.40;;;12.63;;
25449;SDS011;13371;52.080;5.624;2022-07-21T03:06:32;14.82;;;12.02;;
25449;SDS011;13371;52.080;5.624;2022-07-21T03:08:57;16.17;;;12.13;;
25449;SDS011;13371;52.080;5.624;2022-07-21T03:11:23;16.60;;;12.82;;
25449;SDS011;13371;52.080;5.624;2022-07-21T03:13:49;20.17;;;13.98;;
25449;SDS011;13371;52.080;5.624;2022-07-21T03:16:14;18.60;;;13.88;;
25449;SDS011;13371;52.080;5.624;2022-07-21T03:18:40;20.23;;;14.82;;
25449;SDS011;13371;52.080;5.624;2022-07-21T03:21:06;24.55;;;15.70;;
25449;SDS011;13371;52.080;5.624;2022-07-21T03:23:32;19.58;;;14.95;;
25449;SDS011;13371;52.080;5.624;2022-07-21T03:25:57;21.15;;;15.50;;
25449;SDS011;13371;52.080;5.624;2022-07-21T03:28:23;21.48;;;15.68;;
25449;SDS011;13371;52.080;5.624;2022-07-21T03:30:49;20.35;;;15.48;;
25449;SDS011;13371;52.080;5.624;2022-07-21T03:33:14;21.55;;;15.77;;
25449;SDS011;13371;52.080;5.624;2022-07-21T03:35:40;24.50;;;15.77;;
25449;SDS011;13371;52.080;5.624;2022-07-21T03:38:07;24.42;;;16.55;;
25449;SDS011;13371;52.080;5.624;2022-07-21T03:40:33;23.83;;;16.98;;
25449;SDS011;13371;52.080;5.624;2022-07-21T03:43:01;24.02;;;17.02;;
25449;SDS011;13371;52.080;5.624;2022-07-21T03:45:27;23.20;;;16.48;;
25449;SDS011;13371;52.080;5.624;2022-07-21T03:47:57;21.98;;;17.10;;
25449;SDS011;13371;52.080;5.624;2022-07-21T03:50:24;22.17;;;16.63;;
25449;SDS011;13371;52.080;5.624;2022-07-21T03:52:50;27.23;;;17.13;;
25449;SDS011;13371;52.080;5.624;2022-07-21T03:55:16;23.65;;;16.95;;
25449;SDS011;13371;52.080;5.624;2022-07-21T03:57:46;24.15;;;16.23;;
25449;SDS011;13371;52.080;5.624;2022-07-21T04:00:15;21.90;;;16.58;;
25449;SDS011;13371;52.080;5.624;2022-07-21T04:02:44;22.10;;;17.80;;
25449;SDS011;13371;52.080;5.624;2022-07-21T04:05:11;26.35;;;17.30;;
25449;SDS011;13371;52.080;5.624;2022-07-21T04:07:38;24.17;;;18.05;;
25449;SDS011;13371;52.080;5.624;2022-07-21T04:10:05;26.23;;;18.25;;
25449;SDS011;13371;52.080;5.624;2022-07-21T04:12:31;26.80;;;19.20;;
25449;SDS011;13371;52.080;5.624;2022-07-21T04:14:56;27.60;;;19.95;;
25449;SDS011;13371;52.080;5.624;2022-07-21T04:17:22;24.35;;;17.75;;
25449;SDS011;13371;52.080;5.624;2022-07-21T04:19:47;28.40;;;18.55;;
25449;SDS011;13371;52.080;5.624;2022-07-21T04:22:14;27.52;;;19.33;;
25449;SDS011;13371;52.080;5.624;2022-07-21T04:24:39;27.73;;;20.08;;
25449;SDS011;13371;52.080;5.624;2022-07-21T04:27:05;26.92;;;20.08;;
25449;SDS011;13371;52.080;5.624;2022-07-21T04:29:31;28.25;;;19.20;;
25449;SDS011;13371;52.080;5.624;2022-07-21T04:31:56;29.80;;;19.35;;
25449;SDS011;13371;52.080;5.624;2022-07-21T04:34:22;30.55;;;19.17;;
25449;SDS011;13371;52.080;5.624;2022-07-21T04:36:47;28.38;;;20.10;;
25449;SDS011;13371;52.080;5.624;2022-07-21T04:39:13;28.73;;;20.75;;
25449;SDS011;13371;52.080;5.624;2022-07-21T04:41:38;29.35;;;20.77;;
25449;SDS011;13371;52.080;5.624;2022-07-21T04:44:04;26.67;;;19.33;;
25449;SDS011;13371;52.080;5.624;2022-07-21T04:46:30;26.65;;;20.08;;
25449;SDS011;13371;52.080;5.624;2022-07-21T04:48:55;30.20;;;20.48;;
25449;SDS011;13371;52.080;5.624;2022-07-21T04:51:21;28.83;;;21.02;;
25449;SDS011;13371;52.080;5.624;2022-07-21T04:53:46;31.60;;;21.70;;
25449;SDS011;13371;52.080;5.624;2022-07-21T04:56:12;31.85;;;21.42;;
25449;SDS011;13371;52.080;5.624;2022-07-21T04:58:37;30.50;;;22.10;;
25449;SDS011;13371;52.080;5.624;2022-07-21T05:01:03;33.50;;;23.40;;
25449;SDS011;13371;52.080;5.624;2022-07-21T05:03:28;34.13;;;23.15;;
25449;SDS011;13371;52.080;5.624;2022-07-21T05:05:54;34.67;;;22.92;;
25449;SDS011;13371;52.080;5.624;2022-07-21T05:08:19;35.13;;;23.58;;
25449;SDS011;13371;52.080;5.624;2022-07-21T05:10:45;32.63;;;23.08;;
25449;SDS011;13371;52.080;5.624;2022-07-21T05:13:10;34.45;;;23.77;;
25449;SDS011;13371;52.080;5.624;2022-07-21T05:15:36;36.35;;;23.55;;
25449;SDS011;13371;52.080;5.624;2022-07-21T05:18:02;38.97;;;24.85;;
25449;SDS011;13371;52.080;5.624;2022-07-21T05:20:27;36.88;;;24.17;;
25449;SDS011;13371;52.080;5.624;2022-07-21T05:22:53;37.08;;;23.95;;
25449;SDS011;13371;52.080;5.624;2022-07-21T05:25:18;38.80;;;23.85;;
25449;SDS011;13371;52.080;5.624;2022-07-21T05:27:44;33.67;;;23.77;;
25449;SDS011;13371;52.080;5.624;2022-07-21T05:30:10;33.85;;;24.08;;
25449;SDS011;13371;52.080;5.624;2022-07-21T05:32:35;38.78;;;24.20;;
25449;SDS011;13371;52.080;5.624;2022-07-21T05:35:01;32.22;;;22.50;;
25449;SDS011;13371;52.080;5.624;2022-07-21T05:37:33;34.55;;;23.42;;
25449;SDS011;13371;52.080;5.624;2022-07-21T05:39:58;38.78;;;24.63;;
25449;SDS011;13371;52.080;5.624;2022-07-21T05:42:25;35.33;;;22.80;;
25449;SDS011;13371;52.080;5.624;2022-07-21T05:44:51;34.30;;;23.65;;
25449;SDS011;13371;52.080;5.624;2022-07-21T05:47:16;38.70;;;25.48;;
25449;SDS011;13371;52.080;5.624;2022-07-21T05:49:42;41.10;;;25.95;;
25449;SDS011;13371;52.080;5.624;2022-07-21T05:52:07;42.70;;;26.60;;
25449;SDS011;13371;52.080;5.624;2022-07-21T05:54:33;37.53;;;25.75;;
25449;SDS011;13371;52.080;5.624;2022-07-21T05:56:58;44.78;;;27.02;;
25449;SDS011;13371;52.080;5.624;2022-07-21T05:59:24;42.58;;;28.00;;
25449;SDS011;13371;52.080;5.624;2022-07-21T06:01:50;44.10;;;28.17;;
25449;SDS011;13371;52.080;5.624;2022-07-21T06:04:15;43.72;;;27.27;;
25449;SDS011;13371;52.080;5.624;2022-07-21T06:06:41;43.47;;;27.67;;
25449;SDS011;13371;52.080;5.624;2022-07-21T06:09:06;41.38;;;28.02;;
25449;SDS011;13371;52.080;5.624;2022-07-21T06:11:32;38.90;;;26.15;;
25449;SDS011;13371;52.080;5.624;2022-07-21T06:13:57;38.58;;;25.13;;
25449;SDS011;13371;52.080;5.624;2022-07-21T06:16:23;40.63;;;25.60;;
25449;SDS011;13371;52.080;5.624;2022-07-21T06:18:48;37.55;;;23.85;;
25449;SDS011;13371;52.080;5.624;2022-07-21T06:21:14;34.42;;;23.98;;
25449;SDS011;13371;52.080;5.624;2022-07-21T06:23:39;38.35;;;23.35;;
25449;SDS011;13371;52.080;5.624;2022-07-21T06:26:05;34.15;;;21.98;;
25449;SDS011;13371;52.080;5.624;2022-07-21T06:28:30;32.13;;;21.83;;
25449;SDS011;13371;52.080;5.624;2022-07-21T06:30:56;41.83;;;22.58;;
25449;SDS011;13371;52.080;5.624;2022-07-21T06:33:22;30.08;;;20.38;;
25449;SDS011;13371;52.080;5.624;2022-07-21T06:35:47;31.23;;;20.83;;
25449;SDS011;13371;52.080;5.624;2022-07-21T06:38:13;33.70;;;20.60;;
25449;SDS011;13371;52.080;5.624;2022-07-21T06:40:39;31.80;;;20.85;;
25449;SDS011;13371;52.080;5.624;2022-07-21T06:43:05;27.65;;;18.85;;
25449;SDS011;13371;52.080;5.624;2022-07-21T06:45:31;33.70;;;18.80;;
25449;SDS011;13371;52.080;5.624;2022-07-21T06:48:03;28.85;;;18.15;;
25449;SDS011;13371;52.080;5.624;2022-07-21T06:50:31;26.90;;;19.35;;
25449;SDS011;13371;52.080;5.624;2022-07-21T06:52:57;30.67;;;19.17;;
25449;SDS011;13371;52.080;5.624;2022-07-21T06:55:22;32.40;;;18.98;;
25449;SDS011;13371;52.080;5.624;2022-07-21T06:57:48;28.40;;;17.15;;
25449;SDS011;13371;52.080;5.624;2022-07-21T07:00:14;29.30;;;18.60;;
25449;SDS011;13371;52.080;5.624;2022-07-21T07:02:40;31.42;;;18.10;;
25449;SDS011;13371;52.080;5.624;2022-07-21T07:05:06;30.30;;;18.45;;
25449;SDS011;13371;52.080;5.624;2022-07-21T07:07:33;30.40;;;18.23;;
25449;SDS011;13371;52.080;5.624;2022-07-21T07:09:58;30.48;;;17.80;;
25449;SDS011;13371;52.080;5.624;2022-07-21T07:12:25;32.20;;;17.50;;
25449;SDS011;13371;52.080;5.624;2022-07-21T07:14:50;28.42;;;18.52;;
25449;SDS011;13371;52.080;5.624;2022-07-21T07:17:17;24.95;;;16.95;;
25449;SDS011;13371;52.080;5.624;2022-07-21T07:19:44;27.90;;;18.42;;
25449;SDS011;13371;52.080;5.624;2022-07-21T07:22:10;25.20;;;16.42;;
25449;SDS011;13371;52.080;5.624;2022-07-21T07:24:35;27.35;;;17.75;;
25449;SDS011;13371;52.080;5.624;2022-07-21T07:27:01;31.33;;;19.00;;
25449;SDS011;13371;52.080;5.624;2022-07-21T07:29:27;33.13;;;19.73;;
25449;SDS011;13371;52.080;5.624;2022-07-21T07:31:53;29.17;;;18.30;;
25449;SDS011;13371;52.080;5.624;2022-07-21T07:34:19;33.20;;;20.35;;
25449;SDS011;13371;52.080;5.624;2022-07-21T07:36:48;33.33;;;19.63;;
25449;SDS011;13371;52.080;5.624;2022-07-21T07:39:13;33.17;;;19.13;;
25449;SDS011;13371;52.080;5.624;2022-07-21T07:41:40;28.15;;;18.08;;
25449;SDS011;13371;52.080;5.624;2022-07-21T07:44:07;29.63;;;18.85;;
25449;SDS011;13371;52.080;5.624;2022-07-21T07:46:32;28.92;;;19.15;;
25449;SDS011;13371;52.080;5.624;2022-07-21T07:48:59;31.10;;;19.45;;
25449;SDS011;13371;52.080;5.624;2022-07-21T07:51:24;31.77;;;19.08;;
25449;SDS011;13371;52.080;5.624;2022-07-21T07:53:50;28.60;;;19.52;;
25449;SDS011;13371;52.080;5.624;2022-07-21T07:56:16;34.58;;;20.33;;
25449;SDS011;13371;52.080;5.624;2022-07-21T07:58:42;33.03;;;20.25;;
25449;SDS011;13371;52.080;5.624;2022-07-21T08:01:07;34.10;;;20.10;;
25449;SDS011;13371;52.080;5.624;2022-07-21T08:03:34;29.95;;;19.75;;
25449;SDS011;13371;52.080;5.624;2022-07-21T08:05:59;35.42;;;20.70;;
25449;SDS011;13371;52.080;5.624;2022-07-21T08:08:28;33.35;;;20.48;;
25449;SDS011;13371;52.080;5.624;2022-07-21T08:10:54;40.33;;;21.27;;
25449;SDS011;13371;52.080;5.624;2022-07-21T08:13:20;37.45;;;21.67;;
25449;SDS011;13371;52.080;5.624;2022-07-21T08:15:47;34.90;;;22.25;;
25449;SDS011;13371;52.080;5.624;2022-07-21T08:18:13;38.42;;;21.45;;
25449;SDS011;13371;52.080;5.624;2022-07-21T08:20:39;36.55;;;20.55;;
25449;SDS011;13371;52.080;5.624;2022-07-21T08:23:05;40.88;;;22.60;;
25449;SDS011;13371;52.080;5.624;2022-07-21T08:25:31;37.42;;;21.55;;
25449;SDS011;13371;52.080;5.624;2022-07-21T08:27:57;35.47;;;22.08;;
25449;SDS011;13371;52.080;5.624;2022-07-21T08:30:23;35.80;;;21.52;;
25449;SDS011;13371;52.080;5.624;2022-07-21T08:32:48;36.63;;;21.40;;
25449;SDS011;13371;52.080;5.624;2022-07-21T08:35:14;36.08;;;23.17;;
25449;SDS011;13371;52.080;5.624;2022-07-21T08:37:40;35.63;;;22.92;;
25449;SDS011;13371;52.080;5.624;2022-07-21T08:40:07;39.00;;;23.48;;
25449;SDS011;13371;52.080;5.624;2022-07-21T08:42:34;34.17;;;22.38;;
25449;SDS011;13371;52.080;5.624;2022-07-21T08:45:01;43.05;;;23.38;;
25449;SDS011;13371;52.080;5.624;2022-07-21T08:47:26;45.03;;;23.33;;
25449;SDS011;13371;52.080;5.624;2022-07-21T08:49:53;46.45;;;27.13;;
25449;SDS011;13371;52.080;5.624;2022-07-21T08:52:20;47.25;;;25.25;;
25449;SDS011;13371;52.080;5.624;2022-07-21T08:54:46;45.58;;;25.63;;
25449;SDS011;13371;52.080;5.624;2022-07-21T08:57:11;54.65;;;28.05;;
25449;SDS011;13371;52.080;5.624;2022-07-21T08:59:37;48.97;;;26.15;;
25449;SDS011;13371;52.080;5.624;2022-07-21T09:02:03;46.40;;;25.75;;
25449;SDS011;13371;52.080;5.624;2022-07-21T09:04:31;47.67;;;26.00;;
25449;SDS011;13371;52.080;5.624;2022-07-21T09:07:02;44.33;;;25.38;;
25449;SDS011;13371;52.080;5.624;2022-07-21T09:09:33;45.25;;;25.08;;
25449;SDS011;13371;52.080;5.624;2022-07-21T09:12:00;47.55;;;25.33;;
25449;SDS011;13371;52.080;5.624;2022-07-21T09:14:29;35.60;;;20.90;;
25449;SDS011;13371;52.080;5.624;2022-07-21T09:16:58;29.80;;;17.30;;
25449;SDS011;13371;52.080;5.624;2022-07-21T09:19:29;32.28;;;17.50;;
25449;SDS011;13371;52.080;5.624;2022-07-21T09:21:58;30.85;;;18.00;;
25449;SDS011;13371;52.080;5.624;2022-07-21T09:24:26;33.75;;;18.15;;
25449;SDS011;13371;52.080;5.624;2022-07-21T09:29:35;26.25;;;14.85;;
25449;SDS011;13371;52.080;5.624;2022-07-21T09:32:12;26.33;;;16.05;;
25449;SDS011;13371;52.080;5.624;2022-07-21T09:34:39;25.05;;;15.23;;
25449;SDS011;13371;52.080;5.624;2022-07-21T09:37:05;27.25;;;16.27;;
25449;SDS011;13371;52.080;5.624;2022-07-21T09:42:11;23.52;;;15.07;;
25449;SDS011;13371;52.080;5.624;2022-07-21T09:44:58;24.05;;;15.38;;
25449;SDS011;13371;52.080;5.624;2022-07-21T09:47:26;26.02;;;15.38;;
25449;SDS011;13371;52.080;5.624;2022-07-21T09:49:53;23.88;;;14.38;;
25449;SDS011;13371;52.080;5.624;2022-07-21T09:52:21;26.08;;;16.05;;
25449;SDS011;13371;52.080;5.624;2022-07-21T09:55:04;27.58;;;15.07;;
25449;SDS011;13371;52.080;5.624;2022-07-21T09:57:32;25.17;;;14.68;;
25449;SDS011;13371;52.080;5.624;2022-07-21T09:59:58;25.67;;;15.68;;
25449;SDS011;13371;52.080;5.624;2022-07-21T10:02:25;25.85;;;15.40;;
25449;SDS011;13371;52.080;5.624;2022-07-21T10:05:05;22.17;;;14.82;;
25449;SDS011;13371;52.080;5.624;2022-07-21T10:07:37;20.85;;;14.10;;
25449;SDS011;13371;52.080;5.624;2022-07-21T10:10:04;21.95;;;14.10;;
25449;SDS011;13371;52.080;5.624;2022-07-21T10:12:30;18.02;;;13.13;;
25449;SDS011;13371;52.080;5.624;2022-07-21T10:14:56;18.52;;;13.65;;
25449;SDS011;13371;52.080;5.624;2022-07-21T10:17:22;23.08;;;16.00;;
25449;SDS011;13371;52.080;5.624;2022-07-21T10:26:00;21.35;;;14.18;;
25449;SDS011;13371;52.080;5.624;2022-07-21T10:28:28;16.23;;;11.55;;
25449;SDS011;13371;52.080;5.624;2022-07-21T10:30:55;15.48;;;10.20;;
25449;SDS011;13371;52.080;5.624;2022-07-21T10:34:07;14.18;;;9.32;;
25449;SDS011;13371;52.080;5.624;2022-07-21T10:36:07;13.30;;;8.82;;
25449;SDS011;13371;52.080;5.624;2022-07-21T10:38:34;9.50;;;6.95;;
25449;SDS011;13371;52.080;5.624;2022-07-21T10:41:03;10.40;;;6.82;;
25449;SDS011;13371;52.080;5.624;2022-07-21T10:45:56;10.82;;;6.07;;
25449;SDS011;13371;52.080;5.624;2022-07-21T10:51:09;8.82;;;6.05;;
25449;SDS011;13371;52.080;5.624;2022-07-21T10:53:36;8.52;;;6.30;;
25449;SDS011;13371;52.080;5.624;2022-07-21T10:56:03;8.80;;;6.32;;
25449;SDS011;13371;52.080;5.624;2022-07-21T10:58:29;9.57;;;6.43;;
25449;SDS011;13371;52.080;5.624;2022-07-21T11:03:40;9.98;;;6.35;;
25449;SDS011;13371;52.080;5.624;2022-07-21T11:06:11;7.03;;;5.78;;
25449;SDS011;13371;52.080;5.624;2022-07-21T11:08:40;7.30;;;5.93;;
25449;SDS011;13371;52.080;5.624;2022-07-21T11:11:11;9.93;;;6.47;;
25449;SDS011;13371;52.080;5.624;2022-07-21T11:19:36;9.38;;;6.60;;
25449;SDS011;13371;52.080;5.624;2022-07-21T11:22:05;7.53;;;6.22;;
25449;SDS011;13371;52.080;5.624;2022-07-21T11:24:35;10.88;;;6.35;;
25449;SDS011;13371;52.080;5.624;2022-07-21T11:27:06;9.90;;;6.50;;
25449;SDS011;13371;52.080;5.624;2022-07-21T11:29:34;8.43;;;6.78;;
25449;SDS011;13371;52.080;5.624;2022-07-21T11:32:01;13.35;;;6.93;;
25449;SDS011;13371;52.080;5.624;2022-07-21T11:34:47;8.77;;;6.32;;
25449;SDS011;13371;52.080;5.624;2022-07-21T11:37:28;9.50;;;7.07;;
25449;SDS011;13371;52.080;5.624;2022-07-21T11:39:58;8.55;;;6.55;;
25449;SDS011;13371;52.080;5.624;2022-07-21T11:42:25;12.10;;;6.60;;
25449;SDS011;13371;52.080;5.624;2022-07-21T11:44:52;8.35;;;6.28;;
25449;SDS011;13371;52.080;5.624;2022-07-21T11:47:18;9.20;;;6.80;;
25449;SDS011;13371;52.080;5.624;2022-07-21T11:49:45;9.93;;;6.50;;
25449;SDS011;13371;52.080;5.624;2022-07-21T11:52:12;9.27;;;6.78;;
25449;SDS011;13371;52.080;5.624;2022-07-21T11:54:49;8.07;;;6.18;;
25449;SDS011;13371;52.080;5.624;2022-07-21T11:57:19;10.50;;;6.82;;
25449;SDS011;13371;52.080;5.624;2022-07-21T11:59:46;10.38;;;7.05;;
25449;SDS011;13371;52.080;5.624;2022-07-21T12:02:17;10.93;;;7.03;;
25449;SDS011;13371;52.080;5.624;2022-07-21T12:04:45;8.48;;;6.30;;
25449;SDS011;13371;52.080;5.624;2022-07-21T12:07:36;9.90;;;6.68;;
25449;SDS011;13371;52.080;5.624;2022-07-21T12:17:48;8.68;;;6.15;;
25449;SDS011;13371;52.080;5.624;2022-07-21T12:20:32;8.35;;;6.70;;
25449;SDS011;13371;52.080;5.624;2022-07-21T12:23:01;8.68;;;5.68;;
25449;SDS011;13371;52.080;5.624;2022-07-21T12:25:35;7.43;;;5.43;;
25449;SDS011;13371;52.080;5.624;2022-07-21T12:28:05;7.88;;;6.10;;
25449;SDS011;13371;52.080;5.624;2022-07-21T12:30:38;7.82;;;5.88;;
25449;SDS011;13371;52.080;5.624;2022-07-21T12:35:40;9.20;;;5.82;;
25449;SDS011;13371;52.080;5.624;2022-07-21T12:38:11;7.80;;;6.00;;
25449;SDS011;13371;52.080;5.624;2022-07-21T12:43:13;9.98;;;6.30;;
25449;SDS011;13371;52.080;5.624;2022-07-21T12:45:44;9.00;;;6.65;;
25449;SDS011;13371;52.080;5.624;2022-07-21T12:48:17;8.35;;;6.53;;
25449;SDS011;13371;52.080;5.624;2022-07-21T12:51:30;11.05;;;6.40;;
25449;SDS011;13371;52.080;5.624;2022-07-21T12:53:41;8.52;;;6.28;;
25449;SDS011;13371;52.080;5.624;2022-07-21T12:56:15;8.43;;;6.47;;
25449;SDS011;13371;52.080;5.624;2022-07-21T12:59:01;8.60;;;6.30;;
25449;SDS011;13371;52.080;5.624;2022-07-21T13:01:28;9.00;;;6.60;;
25449;SDS011;13371;52.080;5.624;2022-07-21T13:03:56;8.90;;;6.15;;
25449;SDS011;13371;52.080;5.624;2022-07-21T13:06:22;6.80;;;6.00;;
25449;SDS011;13371;52.080;5.624;2022-07-21T13:08:48;9.00;;;6.10;;
25449;SDS011;13371;52.080;5.624;2022-07-21T13:11:16;9.60;;;6.07;;
25449;SDS011;13371;52.080;5.624;2022-07-21T13:13:44;6.25;;;5.32;;
25449;SDS011;13371;52.080;5.624;2022-07-21T13:16:11;7.85;;;5.30;;
25449;SDS011;13371;52.080;5.624;2022-07-21T13:18:37;5.47;;;4.57;;
25449;SDS011;13371;52.080;5.624;2022-07-21T13:21:03;8.40;;;5.78;;
25449;SDS011;13371;52.080;5.624;2022-07-21T13:23:29;6.00;;;4.53;;
25449;SDS011;13371;52.080;5.624;2022-07-21T13:25:55;6.05;;;4.05;;
25449;SDS011;13371;52.080;5.624;2022-07-21T13:28:20;5.28;;;4.35;;
25449;SDS011;13371;52.080;5.624;2022-07-21T13:30:46;7.20;;;4.70;;
25449;SDS011;13371;52.080;5.624;2022-07-21T13:33:12;7.85;;;4.75;;
25449;SDS011;13371;52.080;5.624;2022-07-21T13:35:38;5.97;;;4.60;;
25449;SDS011;13371;52.080;5.624;2022-07-21T13:38:04;6.80;;;4.88;;
25449;SDS011;13371;52.080;5.624;2022-07-21T13:40:29;4.82;;;3.67;;
25449;SDS011;13371;52.080;5.624;2022-07-21T13:42:55;5.47;;;3.97;;
25449;SDS011;13371;52.080;5.624;2022-07-21T13:45:21;6.57;;;4.00;;
25449;SDS011;13371;52.080;5.624;2022-07-21T13:47:47;5.18;;;3.92;;
25449;SDS011;13371;52.080;5.624;2022-07-21T13:50:12;6.30;;;4.63;;
25449;SDS011;13371;52.080;5.624;2022-07-21T13:52:38;7.68;;;4.25;;
25449;SDS011;13371;52.080;5.624;2022-07-21T13:55:06;6.75;;;4.43;;
25449;SDS011;13371;52.080;5.624;2022-07-21T13:57:33;6.18;;;4.32;;
25449;SDS011;13371;52.080;5.624;2022-07-21T13:59:58;5.03;;;4.38;;
25449;SDS011;13371;52.080;5.624;2022-07-21T14:02:24;8.23;;;4.93;;
25449;SDS011;13371;52.080;5.624;2022-07-21T14:04:50;6.88;;;5.15;;
25449;SDS011;13371;52.080;5.624;2022-07-21T14:07:15;7.95;;;5.05;;
25449;SDS011;13371;52.080;5.624;2022-07-21T14:09:41;5.50;;;4.05;;
25449;SDS011;13371;52.080;5.624;2022-07-21T14:12:08;6.13;;;4.18;;
25449;SDS011;13371;52.080;5.624;2022-07-21T14:14:35;4.10;;;2.90;;
25449;SDS011;13371;52.080;5.624;2022-07-21T14:17:03;4.03;;;2.92;;
25449;SDS011;13371;52.080;5.624;2022-07-21T14:19:29;7.93;;;2.63;;
25449;SDS011;13371;52.080;5.624;2022-07-21T14:21:55;6.80;;;3.22;;
25449;SDS011;13371;52.080;5.624;2022-07-21T14:24:21;5.22;;;3.17;;
25449;SDS011;13371;52.080;5.624;2022-07-21T14:27:05;3.95;;;2.97;;
25449;SDS011;13371;52.080;5.624;2022-07-21T14:29:30;6.60;;;2.95;;
25449;SDS011;13371;52.080;5.624;2022-07-21T14:31:57;4.20;;;3.08;;
25449;SDS011;13371;52.080;5.624;2022-07-21T14:34:23;7.00;;;3.28;;
25449;SDS011;13371;52.080;5.624;2022-07-21T14:36:49;5.28;;;3.38;;
25449;SDS011;13371;52.080;5.624;2022-07-21T14:39:16;5.20;;;3.72;;
25449;SDS011;13371;52.080;5.624;2022-07-21T14:41:42;6.30;;;3.70;;
25449;SDS011;13371;52.080;5.624;2022-07-21T14:44:09;6.18;;;3.55;;
25449;SDS011;13371;52.080;5.624;2022-07-21T14:46:35;5.85;;;2.80;;
25449;SDS011;13371;52.080;5.624;2022-07-21T14:49:00;4.40;;;2.90;;
25449;SDS011;13371;52.080;5.624;2022-07-21T14:51:26;5.68;;;3.25;;
25449;SDS011;13371;52.080;5.624;2022-07-21T14:53:52;4.20;;;3.17;;
25449;SDS011;13371;52.080;5.624;2022-07-21T14:56:18;5.55;;;3.13;;
25449;SDS011;13371;52.080;5.624;2022-07-21T14:58:43;6.57;;;2.55;;
25449;SDS011;13371;52.080;5.624;2022-07-21T15:01:09;4.53;;;3.00;;
25449;SDS011;13371;52.080;5.624;2022-07-21T15:03:34;5.85;;;3.17;;
25449;SDS011;13371;52.080;5.624;2022-07-21T15:06:00;4.25;;;3.22;;
25449;SDS011;13371;52.080;5.624;2022-07-21T15:08:25;4.75;;;3.17;;
25449;SDS011;13371;52.080;5.624;2022-07-21T15:10:51;7.43;;;3.58;;